CDT,Max TemperatureF,Mean TemperatureF,Min TemperatureF,Max Dew PointF,MeanDew PointF,Min DewpointF,Max Humidity, Mean Humidity, Min Humidity, Max Sea Level PressureIn, Mean Sea Level PressureIn, Min Sea Level PressureIn, Max VisibilityMiles, Mean VisibilityMiles, Min VisibilityMiles, Max Wind SpeedMPH, Mean Wind SpeedMPH, Max Gust SpeedMPH,PrecipitationIn, CloudCover, Events, WindDirDegrees
2012-4-1,82,61,40,59,48,39,100,73,45,29.67,29.59,29.46,10,4,1,28,16,35,0.00,0,,95
2012-4-2,85,68,51,61,54,48,96,71,45,29.68,29.60,29.53,10,6,2,28,19,33,0.00,5,,138
2012-4-3,63,53,43,54,40,31,78,54,30,30.06,29.97,29.72,10,10,6,29,19,36,0.00,5,,12
2012-4-4,67,52,37,31,27,24,70,46,22,30.07,29.98,29.89,10,10,10,22,11,31,0.00,0,,53
2012-4-5,65,50,35,31,27,22,70,48,25,30.14,30.04,29.94,10,10,10,20,11,25,0.00,0,,94
2012-4-6,64,49,34,29,25,21,75,48,21,30.25,30.14,30.02,10,10,10,28,16,35,0.00,0,,147
2012-4-7,61,49,36,45,32,20,86,56,25,30.29,30.11,30.01,10,10,6,35,18,45,T,4,,234
2012-4-8,68,50,31,24,19,10,59,37,14,30.31,30.22,30.12,10,10,10,29,15,38,0.00,1,,269
2012-4-9,59,42,24,22,17,10,53,36,19,30.22,30.18,30.14,10,10,10,33,15,41,0.00,0,,317
2012-4-10,49,35,20,18,14,9,68,46,24,30.32,30.26,30.22,10,10,10,25,14,33,0.00,0,,322
2012-4-11,54,36,17,16,13,9,67,44,20,30.42,30.34,30.23,10,10,10,13,6,20,0.00,0,,12
2012-4-12,58,42,26,37,23,12,61,43,24,30.22,30.10,29.96,10,10,10,21,12,26,T,5,Rain,170
2012-4-13,65,55,45,57,48,35,96,76,56,29.94,29.76,29.67,10,6,2,36,20,46,0.76,7,Rain-Thunderstorm,169
2012-4-14,65,55,44,57,52,44,100,89,78,29.83,29.74,29.49,10,6,0,51,11,60,0.45,4,Fog-Rain-Thunderstorm,155
2012-4-15,74,60,45,62,55,42,100,73,45,29.54,29.33,29.21,10,9,2,40,21,48,0.35,5,Rain-Thunderstorm,182
2012-4-16,50,41,32,45,36,32,89,75,60,30.25,29.85,29.29,10,9,3,40,21,52,0.05,7,Rain,310
2012-4-17,67,49,30,48,39,30,96,70,44,30.31,30.18,29.94,10,10,8,28,14,38,0.03,4,Rain,176
2012-4-18,67,56,44,50,47,41,89,69,48,29.98,29.95,29.88,10,10,8,29,14,36,0.28,2,Rain,296
2012-4-19,46,43,39,41,38,35,100,88,76,29.98,29.92,29.86,10,8,2,26,17,33,0.82,7,Rain,34
2012-4-20,56,45,33,37,33,28,92,68,43,30.13,30.07,29.99,10,10,8,18,9,32,0.00,2,,359
2012-4-21,56,47,37,46,40,34,92,79,66,30.04,29.95,29.84,10,9,3,26,14,31,0.29,5,Rain-Thunderstorm,172
2012-4-22,53,44,34,43,40,36,96,85,74,30.27,30.15,29.96,10,9,2,26,14,31,0.00,7,,342
2012-4-23,68,51,33,40,35,29,100,62,24,30.26,30.08,29.85,10,9,5,16,7,29,0.00,0,,271
2012-4-24,84,63,41,50,44,36,82,55,28,29.84,29.65,29.55,10,10,9,15,8,20,0.00,0,,153
2012-4-25,88,72,56,54,50,45,80,51,22,29.77,29.57,29.49,10,10,10,31,13,38,T,0,,285
2012-4-26,62,54,45,46,35,23,82,53,23,30.11,30.03,29.79,10,10,10,21,13,26,0.00,1,,30
2012-4-27,60,51,42,35,30,24,70,49,27,30.13,30.01,29.87,10,10,7,39,23,48,0.16,5,Rain-Thunderstorm,112
2012-4-28,46,42,38,43,40,34,100,85,70,30.18,30.02,29.87,10,5,1,23,13,29,0.24,8,Rain,112
2012-4-29,50,47,43,46,44,42,100,90,80,30.19,30.10,30.01,5,3,1,17,9,21,0.02,8,Rain,114
2012-4-30,71,59,46,51,47,44,100,72,44,30.01,29.94,29.82,10,6,2,18,9,31,0.00,5,,219